createdAt,value
2018-03-02T00:00:04.732Z,67.97
2018-03-02T00:01:04.747Z,68.06
2018-03-02T00:02:04.722Z,68.06
2018-03-02T00:03:05.786Z,68.15
2018-03-02T00:04:04.717Z,68.15
2018-03-02T00:05:04.770Z,68.15
2018-03-02T00:06:04.725Z,68.25
2018-03-02T00:07:04.784Z,68.25
2018-03-02T00:08:04.715Z,68.25
2018-03-02T00:09:04.805Z,68.34
2018-03-02T00:10:04.711Z,68.34
2018-03-02T00:11:04.833Z,68.34
2018-03-02T00:12:04.744Z,68.44
2018-03-02T00:13:04.721Z,68.44
2018-03-02T00:14:04.714Z,68.53
2018-03-02T00:15:04.707Z,68.53
2018-03-02T00:16:04.699Z,68.53
2018-03-02T00:17:04.706Z,68.53
2018-03-02T00:18:04.717Z,68.53
2018-03-02T00:19:04.714Z,68.53
2018-03-02T00:20:04.703Z,68.63
2018-03-02T00:21:04.711Z,68.72
2018-03-02T00:22:04.702Z,68.72
2018-03-02T00:23:04.690Z,68.72
2018-03-02T00:24:04.688Z,68.72
2018-03-02T00:25:05.693Z,68.82
2018-03-02T00:26:04.692Z,68.82
2018-03-02T00:27:04.683Z,68.82
2018-03-02T00:28:04.685Z,68.82
2018-03-02T00:29:05.695Z,68.82
2018-03-02T00:30:04.681Z,68.82
2018-03-02T00:31:04.680Z,68.91
2018-03-02T00:32:04.672Z,69.00
2018-03-02T00:33:04.676Z,69.00
2018-03-02T00:34:04.681Z,69.00
2018-03-02T00:35:04.680Z,69.10
2018-03-02T00:36:04.665Z,69.10
2018-03-02T00:37:04.678Z,69.19
2018-03-02T00:38:04.678Z,69.19
2018-03-02T00:39:04.660Z,69.19
2018-03-02T00:40:04.662Z,69.19
2018-03-02T00:41:04.670Z,69.29
2018-03-02T00:42:04.653Z,69.29
2018-03-02T00:43:04.661Z,69.29
2018-03-02T00:44:04.660Z,69.29
2018-03-02T00:45:04.664Z,69.29
2018-03-02T00:46:04.651Z,69.48
2018-03-02T00:47:04.656Z,69.48
2018-03-02T00:48:04.645Z,69.48
2018-03-02T00:49:04.657Z,69.57
2018-03-02T00:50:04.653Z,69.57
2018-03-02T00:51:04.645Z,69.57
2018-03-02T00:52:04.664Z,69.67
2018-03-02T00:53:04.646Z,69.76
2018-03-02T00:54:04.643Z,69.85
2018-03-02T00:55:04.635Z,69.85
2018-03-02T00:56:04.633Z,69.85
2018-03-02T00:57:05.645Z,69.85
2018-03-02T00:58:04.632Z,69.85
2018-03-02T00:59:04.636Z,69.85
2018-03-02T01:00:04.620Z,69.95
2018-03-02T01:01:04.631Z,69.95
2018-03-02T01:02:04.632Z,69.95
2018-03-02T01:03:05.529Z,70.04
2018-03-02T01:04:04.616Z,70.04
2018-03-02T01:05:04.614Z,70.04
2018-03-02T01:06:04.609Z,70.14
2018-03-02T01:07:04.627Z,70.14
2018-03-02T01:08:04.622Z,70.14
2018-03-02T01:09:04.648Z,70.14
2018-03-02T01:10:04.606Z,70.23
2018-03-02T01:11:04.621Z,70.23
2018-03-02T01:12:04.614Z,70.32
2018-03-02T01:13:04.626Z,70.42
2018-03-02T01:14:04.624Z,70.42
2018-03-02T01:15:05.602Z,70.42
2018-03-02T01:16:04.614Z,70.42
2018-03-02T01:17:04.616Z,70.42
2018-03-02T01:18:04.597Z,70.51
2018-03-02T01:19:05.592Z,70.61
2018-03-02T01:20:04.601Z,70.61
2018-03-02T01:21:04.595Z,70.70
2018-03-02T01:22:04.586Z,70.70
2018-03-02T01:23:05.585Z,70.70
2018-03-02T01:24:04.591Z,70.79
2018-03-02T01:25:04.576Z,70.89
2018-03-02T01:26:04.579Z,70.98
2018-03-02T01:27:04.585Z,70.98
2018-03-02T01:28:04.580Z,70.98
2018-03-02T01:29:04.575Z,70.98
2018-03-02T01:30:04.569Z,70.98
2018-03-02T01:31:05.572Z,71.08
2018-03-02T01:32:04.579Z,71.17
2018-03-02T01:33:04.569Z,71.17
2018-03-02T01:34:04.563Z,71.17
2018-03-02T01:35:04.568Z,71.17
2018-03-02T01:36:04.562Z,71.17
2018-03-02T01:37:04.564Z,71.17
2018-03-02T01:38:04.554Z,71.23
2018-03-02T01:39:04.566Z,71.23
2018-03-02T01:40:04.567Z,71.23
2018-03-02T01:41:06.556Z,71.33
2018-03-02T01:42:04.547Z,71.33
2018-03-02T01:43:04.550Z,71.42
2018-03-02T01:44:04.540Z,71.42
2018-03-02T01:45:04.541Z,71.51
2018-03-02T01:46:04.539Z,71.51
2018-03-02T01:47:04.560Z,71.61
2018-03-02T01:48:04.535Z,71.61
2018-03-02T01:49:04.548Z,71.70
2018-03-02T01:50:04.533Z,71.70
2018-03-02T01:51:04.532Z,71.80
2018-03-02T01:52:04.521Z,71.80
2018-03-02T01:53:04.527Z,71.80
2018-03-02T01:54:04.527Z,71.80
2018-03-02T01:55:04.531Z,71.89
2018-03-02T01:56:04.517Z,71.89
2018-03-02T01:57:04.519Z,71.89
2018-03-02T01:58:04.516Z,71.89
2018-03-02T01:59:04.517Z,71.89
2018-03-02T02:00:04.518Z,71.89
2018-03-02T02:01:04.522Z,71.89
2018-03-02T02:02:04.502Z,71.89
2018-03-02T02:03:05.514Z,71.89
2018-03-02T02:04:04.501Z,71.89
2018-03-02T02:05:04.505Z,71.89
2018-03-02T02:06:04.499Z,71.98
2018-03-02T02:07:04.502Z,71.98
2018-03-02T02:08:04.523Z,71.98
2018-03-02T02:09:05.505Z,71.98
2018-03-02T02:10:04.492Z,71.98
2018-03-02T02:11:04.498Z,72.08
2018-03-02T02:12:04.493Z,72.17
2018-03-02T02:13:04.497Z,72.27
2018-03-02T02:14:04.485Z,72.27
2018-03-02T02:15:05.494Z,72.36
2018-03-02T02:16:04.471Z,72.45
2018-03-02T02:17:06.482Z,72.55
2018-03-02T02:18:04.486Z,72.55
2018-03-02T02:19:04.478Z,72.55
2018-03-02T02:20:04.471Z,72.55
2018-03-02T02:21:04.491Z,72.55
2018-03-02T02:22:04.464Z,72.55
2018-03-02T02:23:04.468Z,72.55
2018-03-02T02:24:04.462Z,72.55
2018-03-02T02:25:04.477Z,72.55
2018-03-02T02:26:04.472Z,72.55
2018-03-02T02:27:04.461Z,72.64
2018-03-02T02:28:04.452Z,72.64
2018-03-02T02:29:06.489Z,72.64
2018-03-02T02:30:04.456Z,72.74
2018-03-02T02:31:04.470Z,72.74
2018-03-02T02:32:04.450Z,72.83
2018-03-02T02:33:04.445Z,72.83
2018-03-02T02:34:04.443Z,72.83
2018-03-02T02:35:04.466Z,72.83
2018-03-02T02:36:04.440Z,72.83
2018-03-02T02:37:05.441Z,72.92
2018-03-02T02:38:04.432Z,73.02
2018-03-02T02:39:04.433Z,73.02
2018-03-02T02:40:04.436Z,73.11
2018-03-02T02:41:04.432Z,73.21
2018-03-02T02:42:04.449Z,73.21
2018-03-02T02:43:04.435Z,73.30
2018-03-02T02:44:04.422Z,73.30
2018-03-02T02:45:05.432Z,73.30
2018-03-02T02:46:04.418Z,73.30
2018-03-02T02:47:04.420Z,73.39
2018-03-02T02:48:04.414Z,73.39
2018-03-02T02:49:05.420Z,73.49
2018-03-02T02:50:04.403Z,73.49
2018-03-02T02:51:04.416Z,73.49
2018-03-02T02:52:04.404Z,73.49
2018-03-02T02:53:04.409Z,73.58
2018-03-02T02:54:04.402Z,73.68
2018-03-02T02:55:04.403Z,73.77
2018-03-02T02:56:04.406Z,73.87
2018-03-02T02:57:04.394Z,73.87
2018-03-02T02:58:04.389Z,73.77
2018-03-02T02:59:04.409Z,73.77
2018-03-02T03:00:04.393Z,73.77
2018-03-02T03:01:04.402Z,73.77
2018-03-02T03:02:04.394Z,73.77
2018-03-02T03:03:04.384Z,73.77
2018-03-02T03:04:04.384Z,73.87
2018-03-02T03:05:04.389Z,73.96
2018-03-02T03:06:04.378Z,74.05
2018-03-02T03:07:04.381Z,74.15
2018-03-02T03:08:04.364Z,74.15
2018-03-02T03:09:04.398Z,74.05
2018-03-02T03:10:04.402Z,74.05
2018-03-02T03:11:04.373Z,74.05
2018-03-02T03:12:04.365Z,74.05
2018-03-02T03:13:04.408Z,74.05
2018-03-02T03:14:04.356Z,74.05
2018-03-02T03:15:04.352Z,74.15
2018-03-02T03:16:04.348Z,74.15
2018-03-02T03:17:04.355Z,74.24
2018-03-02T03:18:04.343Z,74.34
2018-03-02T03:19:04.351Z,74.43
2018-03-02T03:20:04.337Z,74.53
2018-03-02T03:21:04.341Z,74.62
2018-03-02T03:22:04.335Z,74.71
2018-03-02T03:23:04.337Z,74.71
2018-03-02T03:24:04.333Z,74.62
2018-03-02T03:25:04.340Z,74.62
2018-03-02T03:26:04.329Z,74.62
2018-03-02T03:27:04.330Z,74.71
2018-03-02T03:28:04.321Z,74.71
2018-03-02T03:29:04.326Z,74.71
2018-03-02T03:30:04.326Z,74.71
2018-03-02T03:31:04.321Z,74.71
2018-03-02T03:32:04.317Z,74.71
2018-03-02T03:33:04.319Z,74.81
2018-03-02T03:34:04.311Z,74.81
2018-03-02T03:35:04.314Z,74.81
2018-03-02T03:36:04.312Z,74.81
2018-03-02T03:37:04.315Z,74.81
2018-03-02T03:38:04.304Z,74.81
2018-03-02T03:39:04.305Z,74.81
2018-03-02T03:40:04.296Z,74.81
2018-03-02T03:41:04.296Z,74.81
2018-03-02T03:42:04.289Z,74.90
2018-03-02T03:43:04.309Z,74.90
2018-03-02T03:44:04.289Z,74.81
2018-03-02T03:45:04.291Z,74.90
2018-03-02T03:46:04.284Z,74.90
2018-03-02T03:47:04.285Z,74.90
2018-03-02T03:48:04.280Z,74.90
2018-03-02T03:49:04.281Z,74.90
2018-03-02T03:50:04.302Z,74.90
2018-03-02T03:51:04.279Z,74.90
2018-03-02T03:52:04.268Z,74.90
2018-03-02T03:53:04.268Z,74.90
2018-03-02T03:54:04.264Z,74.90
2018-03-02T03:55:04.263Z,75.00
2018-03-02T03:56:04.258Z,75.00
2018-03-02T03:57:04.264Z,75.09
2018-03-02T03:58:04.284Z,75.09
2018-03-02T03:59:04.256Z,75.09
2018-03-02T04:00:04.252Z,75.09
2018-03-02T04:01:04.267Z,75.19
2018-03-02T04:02:04.245Z,75.19
2018-03-02T04:03:04.252Z,75.19
2018-03-02T04:04:04.250Z,75.28
2018-03-02T04:05:04.242Z,75.38
2018-03-02T04:06:04.234Z,75.38
2018-03-02T04:07:05.243Z,75.38
2018-03-02T04:08:04.252Z,75.38
2018-03-02T04:09:04.245Z,75.38
2018-03-02T04:10:04.225Z,75.38
2018-03-02T04:11:04.240Z,75.47
2018-03-02T04:12:04.233Z,75.38
2018-03-02T04:13:04.237Z,75.38
2018-03-02T04:14:04.216Z,75.47
2018-03-02T04:15:06.112Z,75.56
2018-03-02T04:16:04.224Z,75.56
2018-03-02T04:17:04.206Z,75.56
2018-03-02T04:18:04.216Z,75.56
2018-03-02T04:19:04.203Z,75.56
2018-03-02T04:20:04.209Z,75.56
2018-03-02T04:21:04.205Z,75.56
2018-03-02T04:22:04.202Z,75.56
2018-03-02T04:23:04.207Z,75.56
2018-03-02T04:24:04.200Z,75.56
2018-03-02T04:25:04.192Z,75.66
2018-03-02T04:26:04.201Z,75.75
2018-03-02T04:27:04.189Z,75.85
2018-03-02T04:28:05.198Z,75.85
2018-03-02T04:29:04.188Z,75.94
2018-03-02T04:30:04.195Z,75.94
2018-03-02T04:31:04.206Z,75.94
2018-03-02T04:32:04.183Z,75.94
2018-03-02T04:33:04.172Z,75.94
2018-03-02T04:34:04.172Z,75.94
2018-03-02T04:35:04.170Z,75.94
2018-03-02T04:36:04.175Z,76.04
2018-03-02T04:37:04.158Z,76.13
2018-03-02T04:38:04.162Z,76.22
2018-03-02T04:39:04.156Z,76.32
2018-03-02T04:40:04.163Z,76.41
2018-03-02T04:41:04.162Z,76.41
2018-03-02T04:42:04.157Z,76.41
2018-03-02T04:43:04.153Z,76.32
2018-03-02T04:44:04.157Z,76.32
2018-03-02T04:45:04.143Z,76.41
2018-03-02T04:46:04.148Z,76.41
2018-03-02T04:47:04.141Z,76.41
2018-03-02T04:48:04.141Z,76.41
2018-03-02T04:49:04.137Z,76.41
2018-03-02T04:50:04.151Z,76.41
2018-03-02T04:51:04.136Z,76.41
2018-03-02T04:52:04.129Z,76.32
2018-03-02T04:53:04.133Z,76.41
2018-03-02T04:54:04.136Z,76.60
2018-03-02T04:55:04.143Z,76.70
2018-03-02T04:56:04.120Z,76.70
2018-03-02T04:57:04.117Z,76.70
2018-03-02T04:58:04.114Z,76.70
2018-03-02T04:59:04.110Z,76.70
2018-03-02T05:00:04.115Z,76.79
2018-03-02T05:01:04.108Z,76.79
2018-03-02T05:02:04.177Z,76.70
2018-03-02T05:03:04.099Z,76.70
2018-03-02T05:04:04.106Z,76.70
2018-03-02T05:05:04.102Z,76.70
2018-03-02T05:06:04.148Z,76.70
2018-03-02T05:07:04.086Z,76.70
2018-03-02T05:08:04.085Z,76.79
2018-03-02T05:09:04.115Z,76.98
2018-03-02T05:10:04.127Z,76.98
2018-03-02T05:11:04.084Z,77.07
2018-03-02T05:12:04.081Z,77.07
2018-03-02T05:13:04.082Z,77.07
2018-03-02T05:14:04.084Z,77.17
2018-03-02T05:15:04.074Z,77.17
2018-03-02T05:16:04.077Z,77.17
2018-03-02T05:17:04.068Z,77.17
2018-03-02T05:18:05.069Z,77.17
2018-03-02T05:19:04.064Z,77.17
2018-03-02T05:20:05.079Z,77.17
2018-03-02T05:21:04.103Z,77.17
2018-03-02T05:22:04.058Z,77.26
2018-03-02T05:23:04.050Z,77.36
2018-03-02T05:24:08.605Z,77.36
2018-03-02T05:25:04.049Z,77.45
2018-03-02T05:26:06.052Z,77.45
2018-03-02T05:27:04.040Z,77.55
2018-03-02T05:28:05.047Z,77.55
2018-03-02T05:29:04.034Z,77.64
2018-03-02T05:30:04.033Z,77.64
2018-03-02T05:31:04.028Z,77.55
2018-03-02T05:32:04.035Z,77.55
2018-03-02T05:33:04.045Z,77.55
2018-03-02T05:34:04.039Z,77.55
2018-03-02T05:35:04.018Z,77.55
2018-03-02T05:36:10.619Z,77.55
2018-03-02T05:37:04.019Z,77.55
2018-03-02T05:38:04.029Z,77.55
2018-03-02T05:39:04.017Z,77.55
2018-03-02T05:40:04.006Z,77.64
2018-03-02T05:41:03.998Z,77.73
2018-03-02T05:42:04.008Z,77.73
2018-03-02T05:43:04.037Z,77.83
2018-03-02T05:44:05.004Z,77.92
2018-03-02T05:45:04.022Z,77.92
2018-03-02T05:46:03.995Z,78.02
2018-03-02T05:47:03.990Z,78.02
2018-03-02T05:48:03.999Z,78.02
2018-03-02T05:49:03.983Z,78.02
2018-03-02T05:50:03.991Z,77.92
2018-03-02T05:51:03.978Z,78.02
2018-03-02T05:52:03.977Z,78.02
2018-03-02T05:53:03.994Z,78.02
2018-03-02T05:54:04.114Z,78.11
2018-03-02T05:55:03.981Z,78.11
2018-03-02T05:56:03.972Z,78.20
2018-03-02T05:57:03.962Z,78.20
2018-03-02T05:58:03.969Z,78.20
2018-03-02T05:59:03.971Z,78.20
2018-03-02T06:00:03.978Z,78.30
2018-03-02T06:01:03.953Z,78.39
2018-03-02T06:02:04.955Z,78.49
2018-03-02T06:03:03.951Z,78.58
2018-03-02T06:04:05.954Z,78.58
2018-03-02T06:05:03.949Z,78.58
2018-03-02T06:06:03.946Z,78.77
2018-03-02T06:07:03.942Z,78.86
2018-03-02T06:08:03.940Z,78.86
2018-03-02T06:09:03.934Z,78.86
2018-03-02T06:10:03.933Z,78.96
2018-03-02T06:11:04.046Z,78.96
2018-03-02T06:12:03.923Z,79.05
2018-03-02T06:13:03.944Z,79.05
2018-03-02T06:14:03.917Z,79.05
2018-03-02T06:15:04.007Z,79.05
2018-03-02T06:16:03.919Z,79.05
2018-03-02T06:17:04.021Z,79.05
2018-03-02T06:18:03.911Z,79.14
2018-03-02T06:19:03.919Z,79.24
2018-03-02T06:20:03.904Z,79.24
2018-03-02T06:21:04.966Z,79.24
2018-03-02T06:22:03.900Z,79.24
2018-03-02T06:23:06.000Z,79.24
2018-03-02T06:24:03.891Z,79.24
2018-03-02T06:25:03.924Z,79.24
2018-03-02T06:26:03.886Z,79.33
2018-03-02T06:27:03.934Z,79.33
2018-03-02T06:28:03.883Z,79.33
2018-03-02T06:29:03.945Z,79.33
2018-03-02T06:30:03.876Z,79.33
2018-03-02T06:31:03.958Z,79.33
2018-03-02T06:32:04.005Z,79.33
2018-03-02T06:33:03.979Z,79.33
2018-03-02T06:34:03.868Z,79.33
2018-03-02T06:35:03.898Z,79.24
2018-03-02T06:36:03.859Z,79.33
2018-03-02T06:37:03.926Z,79.43
2018-03-02T06:38:03.854Z,79.52
2018-03-02T06:39:03.912Z,79.61
2018-03-02T06:40:03.856Z,79.61
2018-03-02T06:41:03.924Z,79.61
2018-03-02T06:42:03.850Z,79.71
2018-03-02T06:43:04.014Z,79.71
2018-03-02T06:44:03.839Z,79.71
2018-03-02T06:45:03.850Z,79.71
2018-03-02T06:46:03.840Z,79.71
2018-03-02T06:47:03.864Z,79.71
2018-03-02T06:48:03.828Z,79.61
2018-03-02T06:49:03.881Z,79.61
2018-03-02T06:50:03.833Z,79.61
2018-03-02T06:51:04.917Z,79.71
2018-03-02T06:52:03.826Z,79.71
2018-03-02T06:53:03.903Z,79.71
2018-03-02T06:54:03.815Z,79.71
2018-03-02T06:55:03.922Z,79.61
2018-03-02T06:56:03.834Z,79.61
2018-03-02T06:57:04.858Z,79.61
2018-03-02T06:58:03.809Z,79.61
2018-03-02T06:59:03.846Z,79.52
2018-03-02T07:00:03.797Z,79.52
2018-03-02T07:01:03.889Z,79.61
2018-03-02T07:02:03.799Z,79.61
2018-03-02T07:03:03.871Z,79.61
2018-03-02T07:04:03.797Z,79.52
2018-03-02T07:05:03.882Z,79.52
2018-03-02T07:06:03.788Z,79.61
2018-03-02T07:07:03.782Z,79.61
2018-03-02T07:08:03.788Z,79.61
2018-03-02T07:09:04.784Z,79.61
2018-03-02T07:10:03.777Z,79.61
2018-03-02T07:11:03.805Z,79.61
2018-03-02T07:12:03.769Z,79.52
2018-03-02T07:13:03.789Z,79.52
2018-03-02T07:14:03.777Z,79.52
2018-03-02T07:15:04.776Z,79.52
2018-03-02T07:16:03.756Z,79.43
2018-03-02T07:17:04.762Z,79.43
2018-03-02T07:18:03.752Z,79.43
2018-03-02T07:19:03.756Z,79.33
2018-03-02T07:20:03.743Z,79.33
2018-03-02T07:21:03.747Z,79.24
2018-03-02T07:22:03.743Z,79.33
2018-03-02T07:23:03.738Z,79.33
2018-03-02T07:24:03.753Z,79.33
2018-03-02T07:25:03.737Z,79.33
2018-03-02T07:26:03.730Z,79.33
2018-03-02T07:27:03.727Z,79.33
2018-03-02T07:28:03.741Z,79.33
2018-03-02T07:29:03.752Z,79.33
2018-03-02T07:30:03.720Z,79.33
2018-03-02T07:31:03.725Z,79.24
2018-03-02T07:32:03.705Z,79.24
2018-03-02T07:33:03.801Z,79.33
2018-03-02T07:34:03.716Z,79.24
2018-03-02T07:35:03.812Z,79.24
2018-03-02T07:36:03.707Z,79.24
2018-03-02T07:37:03.794Z,79.14
2018-03-02T07:38:03.696Z,79.14
2018-03-02T07:39:03.817Z,79.14
2018-03-02T07:40:03.686Z,79.14
2018-03-02T07:41:03.790Z,79.14
2018-03-02T07:42:03.684Z,79.14
2018-03-02T07:43:04.731Z,79.14
2018-03-02T07:44:03.708Z,79.14
2018-03-02T07:45:03.717Z,79.24
2018-03-02T07:46:03.688Z,79.24
2018-03-02T07:47:03.738Z,79.24
2018-03-02T07:48:03.704Z,79.24
2018-03-02T07:49:03.660Z,79.24
2018-03-02T07:50:03.666Z,79.14
2018-03-02T07:51:03.651Z,79.14
2018-03-02T07:52:03.650Z,79.05
2018-03-02T07:53:03.668Z,79.05
2018-03-02T07:54:03.645Z,79.05
2018-03-02T07:55:03.650Z,78.96
2018-03-02T07:56:03.642Z,78.96
2018-03-02T07:57:04.386Z,78.86
2018-03-02T07:58:03.663Z,78.86
2018-03-02T07:59:03.634Z,78.86
2018-03-02T08:00:03.709Z,78.77
2018-03-02T08:01:03.633Z,78.77
2018-03-02T08:02:03.633Z,78.77
2018-03-02T08:03:03.685Z,78.77
2018-03-02T08:04:03.637Z,78.67
2018-03-02T08:05:03.618Z,78.67
2018-03-02T08:06:03.613Z,78.58
2018-03-02T08:07:03.610Z,78.58
2018-03-02T08:08:03.602Z,78.49
2018-03-02T08:09:03.667Z,78.49
2018-03-02T08:10:03.632Z,78.49
2018-03-02T08:11:03.600Z,78.39
2018-03-02T08:12:03.622Z,78.30
2018-03-02T08:13:03.608Z,78.30
2018-03-02T08:14:03.598Z,78.30
2018-03-02T08:15:03.597Z,78.30
2018-03-02T08:16:03.590Z,78.20
2018-03-02T08:17:03.575Z,78.20
2018-03-02T08:18:03.580Z,78.20
2018-03-02T08:19:03.584Z,78.11
2018-03-02T08:20:03.629Z,78.11
2018-03-02T08:22:03.582Z,78.02
2018-03-02T08:23:03.569Z,78.02
2018-03-02T08:24:03.566Z,77.92
2018-03-02T08:25:03.569Z,77.83
2018-03-02T08:26:03.617Z,77.83
2018-03-02T08:27:03.571Z,77.83
2018-03-02T08:28:03.547Z,77.83
2018-03-02T08:29:03.555Z,77.73
2018-03-02T08:30:03.581Z,77.73
2018-03-02T08:31:03.560Z,77.64
2018-03-02T08:32:03.535Z,77.64
2018-03-02T08:33:03.541Z,77.55
2018-03-02T08:34:03.538Z,77.58
2018-03-02T08:35:03.535Z,77.58
2018-03-02T08:36:03.700Z,77.49
2018-03-02T08:37:03.584Z,77.49
2018-03-02T08:38:03.555Z,77.39
2018-03-02T08:39:03.540Z,77.39
2018-03-02T08:40:03.565Z,77.30
2018-03-02T08:41:03.517Z,77.30
2018-03-02T08:42:03.586Z,77.20
2018-03-02T08:43:03.546Z,77.20
2018-03-02T08:44:03.598Z,77.11
2018-03-02T08:45:03.505Z,77.11
2018-03-02T08:46:03.658Z,77.11
2018-03-02T08:47:03.518Z,77.01
2018-03-02T08:48:03.538Z,76.92
2018-03-02T08:49:03.498Z,76.82
2018-03-02T08:50:03.535Z,76.82
2018-03-02T08:51:03.489Z,76.82
2018-03-02T08:52:03.548Z,76.82
2018-03-02T08:53:03.485Z,76.82
2018-03-02T08:54:03.558Z,76.73
2018-03-02T08:55:03.487Z,76.64
2018-03-02T08:56:03.576Z,76.54
2018-03-02T08:57:03.544Z,76.45
2018-03-02T08:58:03.730Z,76.45
2018-03-02T08:59:03.466Z,76.26
2018-03-02T09:00:03.507Z,76.26
2018-03-02T09:01:03.465Z,76.17
2018-03-02T09:02:03.515Z,76.07
2018-03-02T09:03:03.490Z,76.07
2018-03-02T09:04:03.527Z,75.98
2018-03-02T09:05:03.476Z,75.98
2018-03-02T09:06:03.537Z,75.98
2018-03-02T09:07:03.449Z,75.98
2018-03-02T09:08:03.565Z,75.89
2018-03-02T09:09:03.450Z,75.79
2018-03-02T09:10:03.466Z,75.70
2018-03-02T09:11:03.441Z,75.60
2018-03-02T09:12:03.492Z,75.51
2018-03-02T09:13:03.444Z,75.51
2018-03-02T09:14:03.491Z,75.42
2018-03-02T09:15:03.450Z,75.42
2018-03-02T09:16:03.503Z,75.42
2018-03-02T09:17:03.444Z,75.32
2018-03-02T09:18:03.526Z,75.32
2018-03-02T09:19:03.428Z,75.23
2018-03-02T09:20:03.530Z,74.95
2018-03-02T09:21:03.421Z,74.76
2018-03-02T09:22:03.527Z,74.57
2018-03-02T09:23:03.422Z,74.38
2018-03-02T09:24:03.524Z,74.38
2018-03-02T09:25:03.418Z,74.19
2018-03-02T09:26:03.437Z,74.19
2018-03-02T09:27:03.417Z,73.91
2018-03-02T09:28:03.472Z,73.72
2018-03-02T09:29:03.415Z,73.72
2018-03-02T09:30:03.531Z,73.72
2018-03-02T09:31:03.399Z,73.62
2018-03-02T09:32:03.483Z,73.62
2018-03-02T09:33:03.401Z,73.53
2018-03-02T09:34:03.496Z,73.57
2018-03-02T09:35:03.398Z,73.57
2018-03-02T09:36:03.457Z,73.57
2018-03-02T09:37:03.382Z,73.57
2018-03-02T09:38:03.425Z,73.47
2018-03-02T09:39:03.384Z,73.38
2018-03-02T09:40:08.147Z,73.19
2018-03-02T09:41:03.383Z,73.10
2018-03-02T09:42:03.455Z,73.10
2018-03-02T09:43:03.404Z,73.10
2018-03-02T09:44:03.469Z,73.10
2018-03-02T09:45:03.373Z,73.10
2018-03-02T09:46:03.475Z,73.10
2018-03-02T09:47:03.380Z,73.00
2018-03-02T09:48:03.462Z,72.81
2018-03-02T09:49:03.368Z,72.53
2018-03-02T09:50:08.180Z,72.34
2018-03-02T09:51:03.370Z,72.34
2018-03-02T09:52:03.377Z,72.34
2018-03-02T09:53:03.373Z,72.34
2018-03-02T09:54:03.449Z,72.25
2018-03-02T09:55:03.388Z,72.06
2018-03-02T09:56:03.409Z,71.96
2018-03-02T09:57:03.349Z,71.96
2018-03-02T09:58:03.422Z,71.87
2018-03-02T09:59:03.346Z,71.87
2018-03-02T10:00:04.457Z,71.68
2018-03-02T10:01:03.350Z,71.58
2018-03-02T10:02:03.498Z,71.58
2018-03-02T10:03:03.350Z,71.49
2018-03-02T10:04:03.367Z,71.40
2018-03-02T10:05:03.371Z,71.40
2018-03-02T10:06:03.379Z,71.21
2018-03-02T10:07:03.345Z,71.11
2018-03-02T10:08:04.424Z,71.02
2018-03-02T10:09:03.329Z,70.92
2018-03-02T10:10:03.427Z,70.83
2018-03-02T10:11:03.327Z,70.83
2018-03-02T10:12:03.380Z,70.73
2018-03-02T10:13:03.329Z,70.54
2018-03-02T10:14:03.333Z,70.36
2018-03-02T10:15:03.316Z,70.17
2018-03-02T10:16:03.331Z,69.98
2018-03-02T10:17:03.330Z,69.89
2018-03-02T10:18:03.313Z,69.89
2018-03-02T10:19:03.346Z,69.79
2018-03-02T10:20:03.314Z,69.79
2018-03-02T10:21:03.378Z,69.70
2018-03-02T10:22:03.334Z,69.51
2018-03-02T10:23:03.316Z,69.32
2018-03-02T10:24:03.311Z,69.32
2018-03-02T10:25:03.306Z,69.32
2018-03-02T10:26:03.310Z,69.32
2018-03-02T10:27:03.308Z,69.42
2018-03-02T10:28:03.308Z,69.26
2018-03-02T10:29:03.305Z,69.26
2018-03-02T10:30:03.303Z,69.26
2018-03-02T10:31:03.297Z,69.35
2018-03-02T10:32:03.309Z,69.45
2018-03-02T10:33:03.297Z,69.45
2018-03-02T10:34:03.294Z,69.54
2018-03-02T10:35:03.293Z,69.54
2018-03-02T10:36:03.300Z,69.35
2018-03-02T10:37:03.302Z,69.35
2018-03-02T10:38:03.293Z,69.35
2018-03-02T10:39:03.283Z,69.35
2018-03-02T10:40:04.284Z,69.35
2018-03-02T10:41:03.322Z,69.35
2018-03-02T10:42:03.280Z,69.45
2018-03-02T10:43:03.279Z,69.54
2018-03-02T10:44:03.284Z,69.54
2018-03-02T10:45:03.300Z,69.54
2018-03-02T10:46:03.382Z,69.54
2018-03-02T10:47:03.277Z,69.45
2018-03-02T10:48:03.291Z,69.17
2018-03-02T10:49:03.276Z,68.98
2018-03-02T10:50:03.303Z,68.70
2018-03-02T10:51:03.322Z,68.41
2018-03-02T10:52:03.363Z,68.23
2018-03-02T10:53:03.270Z,68.13
2018-03-02T10:54:03.353Z,68.04
2018-03-02T10:55:03.263Z,67.94
2018-03-02T10:56:03.270Z,67.85
2018-03-02T10:57:03.332Z,67.94
2018-03-02T10:58:03.262Z,67.94
2018-03-02T10:59:03.259Z,67.85
2018-03-02T11:00:03.260Z,67.57
2018-03-02T11:01:03.354Z,67.38
2018-03-02T11:02:03.259Z,67.19
2018-03-02T11:03:03.259Z,67.09
2018-03-02T11:04:03.253Z,66.90
2018-03-02T11:05:03.312Z,66.81
2018-03-02T11:06:03.257Z,66.90
2018-03-02T11:07:03.305Z,66.90
2018-03-02T11:08:03.269Z,66.90
2018-03-02T11:09:03.329Z,66.71
2018-03-02T11:10:03.290Z,66.62
2018-03-02T11:11:03.290Z,66.62
2018-03-02T11:12:03.331Z,66.71
2018-03-02T11:13:03.247Z,66.81
2018-03-02T11:14:03.342Z,66.90
2018-03-02T11:15:03.250Z,67.09
2018-03-02T11:16:03.351Z,67.19
2018-03-02T11:17:03.335Z,67.13
2018-03-02T11:18:03.424Z,66.94
2018-03-02T11:19:03.245Z,66.84
2018-03-02T11:20:03.282Z,66.65
2018-03-02T11:21:03.272Z,66.65
2018-03-02T11:22:03.306Z,66.56
2018-03-02T11:23:03.237Z,66.56
2018-03-02T11:24:03.242Z,66.56
2018-03-02T11:25:03.242Z,66.56
2018-03-02T11:26:04.282Z,66.56
2018-03-02T11:27:03.282Z,66.65
2018-03-02T11:28:03.238Z,66.75
2018-03-02T11:29:03.278Z,66.84
2018-03-02T11:30:03.350Z,66.94
2018-03-02T11:31:03.236Z,66.94
2018-03-02T11:32:03.240Z,66.94
2018-03-02T11:33:03.255Z,66.84
2018-03-02T11:34:03.250Z,66.65
2018-03-02T11:35:03.240Z,66.47
2018-03-02T11:36:03.248Z,65.99
2018-03-02T11:37:03.232Z,65.71
2018-03-02T11:38:03.232Z,65.61
2018-03-02T11:39:03.255Z,65.42
2018-03-02T11:40:03.247Z,65.42
2018-03-02T11:41:03.228Z,65.33
2018-03-02T11:42:03.228Z,64.86
2018-03-02T11:43:03.222Z,64.67
2018-03-02T11:44:03.275Z,64.58
2018-03-02T11:45:03.220Z,64.67
2018-03-02T11:46:03.221Z,64.76
2018-03-02T11:47:03.275Z,64.86
2018-03-02T11:48:03.231Z,64.86
2018-03-02T11:49:03.216Z,64.67
2018-03-02T11:50:03.243Z,64.48
2018-03-02T11:51:03.225Z,64.20
2018-03-02T11:52:03.222Z,64.11
2018-03-02T11:53:03.223Z,64.11
2018-03-02T11:54:03.224Z,64.11
2018-03-02T11:55:03.218Z,64.11
2018-03-02T11:56:03.230Z,63.92
2018-03-02T11:57:03.236Z,63.92
2018-03-02T11:58:03.245Z,63.92
2018-03-02T11:59:03.212Z,63.82
2018-03-02T12:00:03.220Z,63.63
2018-03-02T12:01:03.212Z,63.45
2018-03-02T12:02:03.215Z,63.45
2018-03-02T12:03:03.217Z,63.45
2018-03-02T12:04:03.230Z,63.54
2018-03-02T12:05:03.220Z,63.63
2018-03-02T12:06:03.225Z,63.45
2018-03-02T12:07:03.216Z,63.35
2018-03-02T12:08:03.217Z,63.35
2018-03-02T12:09:03.223Z,63.26
2018-03-02T12:10:03.231Z,63.16
2018-03-02T12:11:03.226Z,63.07
2018-03-02T12:12:03.226Z,63.07
2018-03-02T12:13:03.252Z,63.16
2018-03-02T12:14:03.219Z,62.88
2018-03-02T12:15:03.209Z,62.78
2018-03-02T12:16:03.213Z,62.69
2018-03-02T12:17:03.209Z,62.59
2018-03-02T12:18:03.221Z,62.69
2018-03-02T12:19:03.209Z,62.78
2018-03-02T12:20:03.211Z,62.88
2018-03-02T12:21:03.206Z,63.00
2018-03-02T12:22:03.211Z,63.00
2018-03-02T12:23:03.216Z,62.72
2018-03-02T12:24:04.240Z,62.44
2018-03-02T12:25:03.206Z,62.44
2018-03-02T12:26:03.226Z,62.44
2018-03-02T12:27:03.217Z,62.34
2018-03-02T12:28:03.213Z,62.25
2018-03-02T12:29:03.210Z,62.25
2018-03-02T12:30:03.211Z,62.34
2018-03-02T12:31:03.237Z,62.34
2018-03-02T12:32:03.209Z,62.25
2018-03-02T12:33:03.209Z,62.25
2018-03-02T12:34:03.222Z,62.15
2018-03-02T12:35:03.214Z,62.06
2018-03-02T12:36:03.222Z,62.06
2018-03-02T12:37:03.207Z,61.96
2018-03-02T12:38:03.214Z,62.06
2018-03-02T12:39:03.212Z,62.06
2018-03-02T12:40:03.216Z,61.87
2018-03-02T12:41:03.216Z,61.68
2018-03-02T12:42:03.222Z,61.77
2018-03-02T12:43:03.245Z,61.77
2018-03-02T12:44:03.231Z,61.87
2018-03-02T12:45:03.210Z,61.96
2018-03-02T12:46:03.221Z,61.87
2018-03-02T12:47:03.244Z,61.87
2018-03-02T12:48:03.213Z,61.87
2018-03-02T12:49:03.206Z,62.06
2018-03-02T12:50:03.212Z,62.15
2018-03-02T12:51:03.213Z,62.34
2018-03-02T12:52:03.222Z,62.44
2018-03-02T12:53:06.112Z,62.53